sensor_id;sensor_type;location;lat;lon;timestamp;P1;durP1;ratioP1;P2;durP2;ratioP2
22184;SDS011;11258;52.516;13.318;2022-07-23T00:01:21;7.25;;;5.47;;
22184;SDS011;11258;52.516;13.318;2022-07-23T00:03:48;7.15;;;5.90;;
22184;SDS011;11258;52.516;13.318;2022-07-23T00:06:14;8.30;;;5.25;;
22184;SDS011;11258;52.516;13.318;2022-07-23T00:08:40;6.80;;;5.78;;
22184;SDS011;11258;52.516;13.318;2022-07-23T00:11:06;6.05;;;5.45;;
22184;SDS011;11258;52.516;13.318;2022-07-23T00:13:31;6.00;;;5.35;;
22184;SDS011;11258;52.516;13.318;2022-07-23T00:15:57;7.57;;;5.50;;
22184;SDS011;11258;52.516;13.318;2022-07-23T00:18:22;9.10;;;5.43;;
22184;SDS011;11258;52.516;13.318;2022-07-23T00:20:48;8.73;;;5.30;;
22184;SDS011;11258;52.516;13.318;2022-07-23T00:23:14;6.65;;;5.80;;
22184;SDS011;11258;52.516;13.318;2022-07-23T00:25:39;7.13;;;5.75;;
22184;SDS011;11258;52.516;13.318;2022-07-23T00:28:05;8.07;;;5.80;;
22184;SDS011;11258;52.516;13.318;2022-07-23T00:30:30;8.32;;;5.38;;
22184;SDS011;11258;52.516;13.318;2022-07-23T00:33:01;8.30;;;5.97;;
22184;SDS011;11258;52.516;13.318;2022-07-23T00:35:29;7.15;;;5.80;;
22184;SDS011;11258;52.516;13.318;2022-07-23T00:37:57;9.93;;;6.18;;
22184;SDS011;11258;52.516;13.318;2022-07-23T00:40:23;6.30;;;5.70;;
22184;SDS011;11258;52.516;13.318;2022-07-23T00:42:49;8.45;;;5.55;;
22184;SDS011;11258;52.516;13.318;2022-07-23T00:45:14;10.60;;;5.60;;
22184;SDS011;11258;52.516;13.318;2022-07-23T00:47:40;9.35;;;6.00;;
22184;SDS011;11258;52.516;13.318;2022-07-23T00:50:07;7.93;;;5.95;;
22184;SDS011;11258;52.516;13.318;2022-07-23T00:52:34;7.28;;;5.57;;
22184;SDS011;11258;52.516;13.318;2022-07-23T00:55:01;7.70;;;5.57;;
22184;SDS011;11258;52.516;13.318;2022-07-23T00:57:28;9.68;;;6.38;;
22184;SDS011;11258;52.516;13.318;2022-07-23T00:59:54;7.78;;;6.00;;
22184;SDS011;11258;52.516;13.318;2022-07-23T01:02:21;10.02;;;6.95;;
22184;SDS011;11258;52.516;13.318;2022-07-23T01:04:46;7.93;;;6.13;;
22184;SDS011;11258;52.516;13.318;2022-07-23T01:07:12;7.53;;;5.78;;
22184;SDS011;11258;52.516;13.318;2022-07-23T01:09:38;7.65;;;6.03;;
22184;SDS011;11258;52.516;13.318;2022-07-23T01:12:03;10.65;;;6.10;;
22184;SDS011;11258;52.516;13.318;2022-07-23T01:14:30;9.43;;;6.10;;
22184;SDS011;11258;52.516;13.318;2022-07-23T01:16:55;9.20;;;5.45;;
22184;SDS011;11258;52.516;13.318;2022-07-23T01:19:21;7.90;;;5.68;;
22184;SDS011;11258;52.516;13.318;2022-07-23T01:21:49;9.30;;;5.45;;
22184;SDS011;11258;52.516;13.318;2022-07-23T01:24:16;9.70;;;5.35;;
22184;SDS011;11258;52.516;13.318;2022-07-23T01:26:44;6.20;;;5.05;;
22184;SDS011;11258;52.516;13.318;2022-07-23T01:29:11;8.15;;;5.95;;
22184;SDS011;11258;52.516;13.318;2022-07-23T01:31:37;9.60;;;5.72;;
22184;SDS011;11258;52.516;13.318;2022-07-23T01:34:02;9.40;;;6.07;;
22184;SDS011;11258;52.516;13.318;2022-07-23T01:36:29;8.98;;;6.35;;
22184;SDS011;11258;52.516;13.318;2022-07-23T01:38:55;6.38;;;5.65;;
22184;SDS011;11258;52.516;13.318;2022-07-23T01:41:20;7.25;;;5.82;;
22184;SDS011;11258;52.516;13.318;2022-07-23T01:43:46;7.63;;;6.15;;
22184;SDS011;11258;52.516;13.318;2022-07-23T01:46:12;9.00;;;6.07;;
22184;SDS011;11258;52.516;13.318;2022-07-23T01:48:37;8.45;;;5.57;;
22184;SDS011;11258;52.516;13.318;2022-07-23T01:51:03;6.38;;;5.50;;
22184;SDS011;11258;52.516;13.318;2022-07-23T01:53:29;6.80;;;5.88;;
22184;SDS011;11258;52.516;13.318;2022-07-23T01:55:56;8.38;;;5.10;;
22184;SDS011;11258;52.516;13.318;2022-07-23T01:58:22;8.27;;;6.18;;
22184;SDS011;11258;52.516;13.318;2022-07-23T02:00:49;9.35;;;6.30;;
22184;SDS011;11258;52.516;13.318;2022-07-23T02:03:14;8.68;;;6.18;;
22184;SDS011;11258;52.516;13.318;2022-07-23T02:05:40;12.07;;;6.32;;
22184;SDS011;11258;52.516;13.318;2022-07-23T02:08:05;8.00;;;5.93;;
22184;SDS011;11258;52.516;13.318;2022-07-23T02:10:31;8.38;;;5.72;;
22184;SDS011;11258;52.516;13.318;2022-07-23T02:12:56;9.00;;;5.80;;
22184;SDS011;11258;52.516;13.318;2022-07-23T02:15:22;10.40;;;6.45;;
22184;SDS011;11258;52.516;13.318;2022-07-23T02:17:48;8.77;;;6.03;;
22184;SDS011;11258;52.516;13.318;2022-07-23T02:20:14;6.60;;;5.68;;
22184;SDS011;11258;52.516;13.318;2022-07-23T02:22:39;8.23;;;6.07;;
22184;SDS011;11258;52.516;13.318;2022-07-23T02:25:05;12.50;;;6.22;;
22184;SDS011;11258;52.516;13.318;2022-07-23T02:27:32;8.13;;;6.25;;
22184;SDS011;11258;52.516;13.318;2022-07-23T02:29:57;8.35;;;6.85;;
22184;SDS011;11258;52.516;13.318;2022-07-23T02:32:23;7.80;;;5.90;;
22184;SDS011;11258;52.516;13.318;2022-07-23T02:34:49;9.32;;;6.35;;
22184;SDS011;11258;52.516;13.318;2022-07-23T02:37:15;7.05;;;5.85;;
22184;SDS011;11258;52.516;13.318;2022-07-23T02:39:41;6.75;;;6.05;;
22184;SDS011;11258;52.516;13.318;2022-07-23T02:42:07;7.22;;;6.35;;
22184;SDS011;11258;52.516;13.318;2022-07-23T02:44:32;7.10;;;5.43;;
22184;SDS011;11258;52.516;13.318;2022-07-23T02:46:58;9.45;;;6.18;;
22184;SDS011;11258;52.516;13.318;2022-07-23T02:49:23;6.28;;;5.40;;
22184;SDS011;11258;52.516;13.318;2022-07-23T02:51:49;8.32;;;5.47;;
22184;SDS011;11258;52.516;13.318;2022-07-23T02:54:15;7.80;;;6.10;;
22184;SDS011;11258;52.516;13.318;2022-07-23T02:56:41;9.27;;;5.95;;
22184;SDS011;11258;52.516;13.318;2022-07-23T02:59:06;9.95;;;6.47;;
22184;SDS011;11258;52.516;13.318;2022-07-23T03:01:32;8.63;;;5.70;;
22184;SDS011;11258;52.516;13.318;2022-07-23T03:03:57;10.27;;;6.25;;
22184;SDS011;11258;52.516;13.318;2022-07-23T03:06:23;8.07;;;6.47;;
22184;SDS011;11258;52.516;13.318;2022-07-23T03:08:48;8.52;;;6.18;;
22184;SDS011;11258;52.516;13.318;2022-07-23T03:11:14;11.02;;;6.43;;
22184;SDS011;11258;52.516;13.318;2022-07-23T03:13:40;10.25;;;5.82;;
22184;SDS011;11258;52.516;13.318;2022-07-23T03:16:06;7.28;;;5.30;;
22184;SDS011;11258;52.516;13.318;2022-07-23T03:18:32;8.68;;;6.47;;
22184;SDS011;11258;52.516;13.318;2022-07-23T03:20:58;8.45;;;5.47;;
22184;SDS011;11258;52.516;13.318;2022-07-23T03:23:24;9.63;;;5.93;;
22184;SDS011;11258;52.516;13.318;2022-07-23T03:25:49;8.88;;;6.05;;
22184;SDS011;11258;52.516;13.318;2022-07-23T03:28:15;9.45;;;5.70;;
22184;SDS011;11258;52.516;13.318;2022-07-23T03:30:42;9.82;;;5.35;;
22184;SDS011;11258;52.516;13.318;2022-07-23T03:33:08;9.02;;;5.55;;
22184;SDS011;11258;52.516;13.318;2022-07-23T03:35:33;8.57;;;5.40;;
22184;SDS011;11258;52.516;13.318;2022-07-23T03:37:59;9.32;;;4.78;;
22184;SDS011;11258;52.516;13.318;2022-07-23T03:40:25;8.15;;;4.25;;
22184;SDS011;11258;52.516;13.318;2022-07-23T03:42:51;6.38;;;3.95;;
22184;SDS011;11258;52.516;13.318;2022-07-23T03:45:16;5.25;;;3.80;;
22184;SDS011;11258;52.516;13.318;2022-07-23T03:47:42;7.80;;;3.30;;
22184;SDS011;11258;52.516;13.318;2022-07-23T03:50:09;5.40;;;3.60;;
22184;SDS011;11258;52.516;13.318;2022-07-23T03:52:35;5.82;;;3.22;;
22184;SDS011;11258;52.516;13.318;2022-07-23T03:55:01;6.38;;;3.28;;
22184;SDS011;11258;52.516;13.318;2022-07-23T03:57:27;5.32;;;3.17;;
22184;SDS011;11258;52.516;13.318;2022-07-23T03:59:53;4.72;;;3.15;;
22184;SDS011;11258;52.516;13.318;2022-07-23T04:02:18;5.65;;;3.20;;
22184;SDS011;11258;52.516;13.318;2022-07-23T04:04:44;4.07;;;3.22;;
22184;SDS011;11258;52.516;13.318;2022-07-23T04:07:09;5.70;;;2.88;;
22184;SDS011;11258;52.516;13.318;2022-07-23T04:09:35;4.68;;;2.50;;
22184;SDS011;11258;52.516;13.318;2022-07-23T04:12:01;5.43;;;2.92;;
22184;SDS011;11258;52.516;13.318;2022-07-23T04:14:26;3.15;;;2.80;;
22184;SDS011;11258;52.516;13.318;2022-07-23T04:16:52;6.90;;;3.25;;
22184;SDS011;11258;52.516;13.318;2022-07-23T04:19:17;6.57;;;3.22;;
22184;SDS011;11258;52.516;13.318;2022-07-23T04:21:43;5.15;;;3.10;;
22184;SDS011;11258;52.516;13.318;2022-07-23T04:24:08;5.45;;;2.50;;
22184;SDS011;11258;52.516;13.318;2022-07-23T04:26:34;5.78;;;2.50;;
22184;SDS011;11258;52.516;13.318;2022-07-23T04:29:00;4.97;;;2.60;;
22184;SDS011;11258;52.516;13.318;2022-07-23T04:31:25;3.63;;;2.20;;
22184;SDS011;11258;52.516;13.318;2022-07-23T04:33:51;6.78;;;2.72;;
22184;SDS011;11258;52.516;13.318;2022-07-23T04:36:16;6.13;;;2.85;;
22184;SDS011;11258;52.516;13.318;2022-07-23T04:38:42;6.53;;;2.60;;
22184;SDS011;11258;52.516;13.318;2022-07-23T04:41:07;9.10;;;2.90;;
22184;SDS011;11258;52.516;13.318;2022-07-23T04:43:33;8.57;;;2.80;;
22184;SDS011;11258;52.516;13.318;2022-07-23T04:45:59;4.30;;;2.67;;
22184;SDS011;11258;52.516;13.318;2022-07-23T04:48:24;8.50;;;3.10;;
22184;SDS011;11258;52.516;13.318;2022-07-23T04:50:50;5.05;;;2.65;;
22184;SDS011;11258;52.516;13.318;2022-07-23T04:53:15;7.03;;;2.58;;
22184;SDS011;11258;52.516;13.318;2022-07-23T04:55:42;8.18;;;2.60;;
22184;SDS011;11258;52.516;13.318;2022-07-23T04:58:08;6.80;;;3.22;;
22184;SDS011;11258;52.516;13.318;2022-07-23T05:00:33;5.70;;;2.60;;
22184;SDS011;11258;52.516;13.318;2022-07-23T05:02:59;3.83;;;2.70;;
22184;SDS011;11258;52.516;13.318;2022-07-23T05:05:25;5.57;;;2.33;;
22184;SDS011;11258;52.516;13.318;2022-07-23T05:07:50;3.50;;;2.70;;
22184;SDS011;11258;52.516;13.318;2022-07-23T05:10:16;4.72;;;2.45;;
22184;SDS011;11258;52.516;13.318;2022-07-23T05:12:41;8.57;;;2.67;;
22184;SDS011;11258;52.516;13.318;2022-07-23T05:15:07;4.15;;;2.58;;
22184;SDS011;11258;52.516;13.318;2022-07-23T05:17:33;13.45;;;3.47;;
22184;SDS011;11258;52.516;13.318;2022-07-23T05:19:58;7.85;;;2.42;;
22184;SDS011;11258;52.516;13.318;2022-07-23T05:22:24;3.80;;;2.60;;
22184;SDS011;11258;52.516;13.318;2022-07-23T05:24:49;7.15;;;2.83;;
22184;SDS011;11258;52.516;13.318;2022-07-23T05:27:15;7.28;;;3.25;;
22184;SDS011;11258;52.516;13.318;2022-07-23T05:29:40;5.40;;;2.63;;
22184;SDS011;11258;52.516;13.318;2022-07-23T05:32:06;7.10;;;2.47;;
22184;SDS011;11258;52.516;13.318;2022-07-23T05:34:31;6.97;;;3.28;;
22184;SDS011;11258;52.516;13.318;2022-07-23T05:36:57;6.65;;;3.00;;
22184;SDS011;11258;52.516;13.318;2022-07-23T05:39:22;7.00;;;3.25;;
22184;SDS011;11258;52.516;13.318;2022-07-23T05:41:48;6.15;;;3.30;;
22184;SDS011;11258;52.516;13.318;2022-07-23T05:44:13;9.48;;;3.30;;
22184;SDS011;11258;52.516;13.318;2022-07-23T05:46:39;5.85;;;3.13;;
22184;SDS011;11258;52.516;13.318;2022-07-23T05:49:04;7.20;;;3.10;;
22184;SDS011;11258;52.516;13.318;2022-07-23T05:51:30;7.53;;;2.88;;
22184;SDS011;11258;52.516;13.318;2022-07-23T05:53:56;6.20;;;3.17;;
22184;SDS011;11258;52.516;13.318;2022-07-23T05:56:21;8.50;;;2.90;;
22184;SDS011;11258;52.516;13.318;2022-07-23T05:58:47;3.97;;;2.72;;
22184;SDS011;11258;52.516;13.318;2022-07-23T06:01:12;5.60;;;3.17;;
22184;SDS011;11258;52.516;13.318;2022-07-23T06:03:38;6.72;;;3.22;;
22184;SDS011;11258;52.516;13.318;2022-07-23T06:06:04;6.07;;;3.10;;
22184;SDS011;11258;52.516;13.318;2022-07-23T06:08:30;8.50;;;3.33;;
22184;SDS011;11258;52.516;13.318;2022-07-23T06:10:56;4.18;;;2.78;;
22184;SDS011;11258;52.516;13.318;2022-07-23T06:13:21;3.97;;;2.88;;
22184;SDS011;11258;52.516;13.318;2022-07-23T06:15:47;12.23;;;3.85;;
22184;SDS011;11258;52.516;13.318;2022-07-23T06:18:13;4.00;;;2.97;;
22184;SDS011;11258;52.516;13.318;2022-07-23T06:20:39;8.38;;;3.33;;
22184;SDS011;11258;52.516;13.318;2022-07-23T06:23:04;7.00;;;4.63;;
22184;SDS011;11258;52.516;13.318;2022-07-23T06:25:30;8.68;;;3.83;;
22184;SDS011;11258;52.516;13.318;2022-07-23T06:27:55;5.28;;;3.40;;
22184;SDS011;11258;52.516;13.318;2022-07-23T06:30:21;10.75;;;4.32;;
22184;SDS011;11258;52.516;13.318;2022-07-23T06:32:47;8.00;;;3.70;;
22184;SDS011;11258;52.516;13.318;2022-07-23T06:35:13;7.65;;;3.45;;
22184;SDS011;11258;52.516;13.318;2022-07-23T06:37:39;6.03;;;4.25;;
22184;SDS011;11258;52.516;13.318;2022-07-23T06:40:05;5.22;;;3.60;;
22184;SDS011;11258;52.516;13.318;2022-07-23T06:42:31;6.10;;;4.43;;
22184;SDS011;11258;52.516;13.318;2022-07-23T06:44:56;6.68;;;3.92;;
22184;SDS011;11258;52.516;13.318;2022-07-23T06:47:22;6.20;;;3.60;;
22184;SDS011;11258;52.516;13.318;2022-07-23T06:49:47;5.50;;;3.28;;
22184;SDS011;11258;52.516;13.318;2022-07-23T06:52:13;5.80;;;3.90;;
22184;SDS011;11258;52.516;13.318;2022-07-23T06:54:39;4.18;;;3.58;;
22184;SDS011;11258;52.516;13.318;2022-07-23T06:57:04;7.72;;;3.92;;
22184;SDS011;11258;52.516;13.318;2022-07-23T06:59:30;9.77;;;5.22;;
22184;SDS011;11258;52.516;13.318;2022-07-23T07:01:55;6.90;;;3.95;;
22184;SDS011;11258;52.516;13.318;2022-07-23T07:04:23;6.13;;;3.97;;
22184;SDS011;11258;52.516;13.318;2022-07-23T07:06:48;7.68;;;3.92;;
22184;SDS011;11258;52.516;13.318;2022-07-23T07:09:14;7.55;;;4.05;;
22184;SDS011;11258;52.516;13.318;2022-07-23T07:11:39;5.82;;;3.42;;
22184;SDS011;11258;52.516;13.318;2022-07-23T07:14:05;5.38;;;3.60;;
22184;SDS011;11258;52.516;13.318;2022-07-23T07:16:31;7.10;;;3.88;;
22184;SDS011;11258;52.516;13.318;2022-07-23T07:18:57;5.15;;;3.80;;
22184;SDS011;11258;52.516;13.318;2022-07-23T07:21:22;6.22;;;3.85;;
22184;SDS011;11258;52.516;13.318;2022-07-23T07:23:48;6.63;;;3.80;;
22184;SDS011;11258;52.516;13.318;2022-07-23T07:26:13;6.70;;;3.97;;
22184;SDS011;11258;52.516;13.318;2022-07-23T07:28:39;8.75;;;4.30;;
22184;SDS011;11258;52.516;13.318;2022-07-23T07:31:04;8.95;;;4.38;;
22184;SDS011;11258;52.516;13.318;2022-07-23T07:33:30;7.78;;;4.70;;
22184;SDS011;11258;52.516;13.318;2022-07-23T07:35:55;7.70;;;4.40;;
22184;SDS011;11258;52.516;13.318;2022-07-23T07:38:21;6.10;;;4.50;;
22184;SDS011;11258;52.516;13.318;2022-07-23T07:40:47;7.55;;;4.35;;
22184;SDS011;11258;52.516;13.318;2022-07-23T07:43:12;6.68;;;4.10;;
22184;SDS011;11258;52.516;13.318;2022-07-23T07:45:38;6.15;;;4.15;;
22184;SDS011;11258;52.516;13.318;2022-07-23T07:48:04;7.53;;;4.15;;
22184;SDS011;11258;52.516;13.318;2022-07-23T07:50:30;7.75;;;3.92;;
22184;SDS011;11258;52.516;13.318;2022-07-23T07:52:55;9.50;;;3.85;;
22184;SDS011;11258;52.516;13.318;2022-07-23T07:55:21;5.32;;;3.67;;
22184;SDS011;11258;52.516;13.318;2022-07-23T07:57:47;5.60;;;3.60;;
22184;SDS011;11258;52.516;13.318;2022-07-23T08:00:13;6.18;;;3.47;;
22184;SDS011;11258;52.516;13.318;2022-07-23T08:02:48;6.32;;;3.55;;
22184;SDS011;11258;52.516;13.318;2022-07-23T08:05:18;9.88;;;3.08;;
22184;SDS011;11258;52.516;13.318;2022-07-23T08:07:48;6.70;;;3.08;;
22184;SDS011;11258;52.516;13.318;2022-07-23T08:10:14;6.00;;;3.00;;
22184;SDS011;11258;52.516;13.318;2022-07-23T08:12:41;5.75;;;2.97;;
22184;SDS011;11258;52.516;13.318;2022-07-23T08:15:11;6.10;;;2.20;;
22184;SDS011;11258;52.516;13.318;2022-07-23T08:17:41;5.43;;;2.50;;
22184;SDS011;11258;52.516;13.318;2022-07-23T08:20:09;3.78;;;1.95;;
22184;SDS011;11258;52.516;13.318;2022-07-23T08:22:52;5.70;;;2.15;;
22184;SDS011;11258;52.516;13.318;2022-07-23T08:25:26;4.20;;;1.73;;
22184;SDS011;11258;52.516;13.318;2022-07-23T08:28:07;2.70;;;1.63;;
22184;SDS011;11258;52.516;13.318;2022-07-23T08:30:34;3.38;;;1.40;;
22184;SDS011;11258;52.516;13.318;2022-07-23T08:33:02;2.50;;;1.80;;
22184;SDS011;11258;52.516;13.318;2022-07-23T08:35:30;4.60;;;2.55;;
22184;SDS011;11258;52.516;13.318;2022-07-23T08:37:58;4.25;;;2.10;;
22184;SDS011;11258;52.516;13.318;2022-07-23T08:40:29;11.00;;;6.80;;
22184;SDS011;11258;52.516;13.318;2022-07-23T08:42:56;5.68;;;3.22;;
22184;SDS011;11258;52.516;13.318;2022-07-23T08:45:23;4.72;;;2.03;;
22184;SDS011;11258;52.516;13.318;2022-07-23T08:47:55;4.53;;;2.50;;
22184;SDS011;11258;52.516;13.318;2022-07-23T08:50:24;3.00;;;1.73;;
22184;SDS011;11258;52.516;13.318;2022-07-23T08:52:50;4.40;;;2.08;;
22184;SDS011;11258;52.516;13.318;2022-07-23T08:55:17;5.22;;;2.67;;
22184;SDS011;11258;52.516;13.318;2022-07-23T08:57:43;7.43;;;2.50;;
22184;SDS011;11258;52.516;13.318;2022-07-23T09:00:12;4.50;;;2.15;;
22184;SDS011;11258;52.516;13.318;2022-07-23T09:02:39;4.65;;;1.90;;
22184;SDS011;11258;52.516;13.318;2022-07-23T09:05:06;4.07;;;2.45;;
22184;SDS011;11258;52.516;13.318;2022-07-23T09:07:32;2.33;;;1.67;;
22184;SDS011;11258;52.516;13.318;2022-07-23T09:10:05;3.75;;;2.25;;
22184;SDS011;11258;52.516;13.318;2022-07-23T09:12:33;5.20;;;2.22;;
22184;SDS011;11258;52.516;13.318;2022-07-23T09:15:04;2.22;;;1.92;;
22184;SDS011;11258;52.516;13.318;2022-07-23T09:17:36;4.43;;;2.28;;
22184;SDS011;11258;52.516;13.318;2022-07-23T09:20:07;5.47;;;2.88;;
22184;SDS011;11258;52.516;13.318;2022-07-23T09:22:34;7.47;;;4.22;;
22184;SDS011;11258;52.516;13.318;2022-07-23T09:30:15;5.85;;;3.22;;
22184;SDS011;11258;52.516;13.318;2022-07-23T09:32:41;5.78;;;3.30;;
22184;SDS011;11258;52.516;13.318;2022-07-23T09:35:07;6.07;;;3.30;;
22184;SDS011;11258;52.516;13.318;2022-07-23T09:37:33;6.53;;;3.20;;
22184;SDS011;11258;52.516;13.318;2022-07-23T09:40:06;5.00;;;2.78;;
22184;SDS011;11258;52.516;13.318;2022-07-23T09:42:34;2.28;;;2.08;;
22184;SDS011;11258;52.516;13.318;2022-07-23T09:45:00;4.18;;;2.90;;
22184;SDS011;11258;52.516;13.318;2022-07-23T09:47:29;6.50;;;3.92;;
22184;SDS011;11258;52.516;13.318;2022-07-23T09:52:43;5.47;;;2.72;;
22184;SDS011;11258;52.516;13.318;2022-07-23T09:55:14;4.78;;;2.75;;
22184;SDS011;11258;52.516;13.318;2022-07-23T09:57:41;8.23;;;3.90;;
22184;SDS011;11258;52.516;13.318;2022-07-23T10:00:09;8.35;;;4.15;;
22184;SDS011;11258;52.516;13.318;2022-07-23T10:02:36;4.80;;;3.25;;
22184;SDS011;11258;52.516;13.318;2022-07-23T10:05:03;6.25;;;3.28;;
22184;SDS011;11258;52.516;13.318;2022-07-23T10:07:34;4.53;;;3.13;;
22184;SDS011;11258;52.516;13.318;2022-07-23T10:10:07;4.22;;;2.78;;
22184;SDS011;11258;52.516;13.318;2022-07-23T10:12:33;7.38;;;3.00;;
22184;SDS011;11258;52.516;13.318;2022-07-23T10:15:01;5.80;;;4.00;;
22184;SDS011;11258;52.516;13.318;2022-07-23T10:17:28;7.18;;;4.15;;
22184;SDS011;11258;52.516;13.318;2022-07-23T10:19:54;7.53;;;3.70;;
22184;SDS011;11258;52.516;13.318;2022-07-23T10:22:22;7.55;;;4.35;;
22184;SDS011;11258;52.516;13.318;2022-07-23T10:30:45;7.53;;;3.40;;
22184;SDS011;11258;52.516;13.318;2022-07-23T10:36:27;4.78;;;3.00;;
22184;SDS011;11258;52.516;13.318;2022-07-23T10:41:46;5.93;;;3.47;;
22184;SDS011;11258;52.516;13.318;2022-07-23T10:44:14;3.85;;;2.88;;
22184;SDS011;11258;52.516;13.318;2022-07-23T10:49:37;5.82;;;3.10;;
22184;SDS011;11258;52.516;13.318;2022-07-23T10:52:19;5.28;;;3.13;;
22184;SDS011;11258;52.516;13.318;2022-07-23T10:57:16;5.00;;;2.80;;
22184;SDS011;11258;52.516;13.318;2022-07-23T11:02:32;4.28;;;2.95;;
22184;SDS011;11258;52.516;13.318;2022-07-23T11:04:59;7.32;;;2.92;;
22184;SDS011;11258;52.516;13.318;2022-07-23T11:07:33;3.72;;;2.63;;
22184;SDS011;11258;52.516;13.318;2022-07-23T11:09:59;7.68;;;3.63;;
22184;SDS011;11258;52.516;13.318;2022-07-23T11:17:31;6.65;;;4.95;;
22184;SDS011;11258;52.516;13.318;2022-07-23T11:22:40;6.05;;;3.17;;
22184;SDS011;11258;52.516;13.318;2022-07-23T11:25:14;5.72;;;3.38;;
22184;SDS011;11258;52.516;13.318;2022-07-23T11:28:10;6.40;;;3.85;;
22184;SDS011;11258;52.516;13.318;2022-07-23T11:30:46;4.97;;;3.13;;
22184;SDS011;11258;52.516;13.318;2022-07-23T11:35:42;5.20;;;3.75;;
22184;SDS011;11258;52.516;13.318;2022-07-23T11:38:20;5.78;;;3.58;;
22184;SDS011;11258;52.516;13.318;2022-07-23T11:40:51;5.70;;;4.05;;
22184;SDS011;11258;52.516;13.318;2022-07-23T11:43:19;4.80;;;3.75;;
22184;SDS011;11258;52.516;13.318;2022-07-23T11:45:47;6.63;;;3.30;;
22184;SDS011;11258;52.516;13.318;2022-07-23T11:48:20;5.20;;;3.53;;
22184;SDS011;11258;52.516;13.318;2022-07-23T11:50:47;5.72;;;2.97;;
22184;SDS011;11258;52.516;13.318;2022-07-23T11:53:20;7.07;;;3.17;;
22184;SDS011;11258;52.516;13.318;2022-07-23T11:56:07;5.35;;;2.78;;
22184;SDS011;11258;52.516;13.318;2022-07-23T11:58:34;5.13;;;3.67;;
22184;SDS011;11258;52.516;13.318;2022-07-23T12:01:00;8.25;;;3.95;;
22184;SDS011;11258;52.516;13.318;2022-07-23T12:03:26;8.48;;;4.30;;
22184;SDS011;11258;52.516;13.318;2022-07-23T12:05:55;4.78;;;2.88;;
22184;SDS011;11258;52.516;13.318;2022-07-23T12:08:24;5.05;;;2.97;;
22184;SDS011;11258;52.516;13.318;2022-07-23T12:10:50;6.57;;;3.30;;
22184;SDS011;11258;52.516;13.318;2022-07-23T12:13:17;4.72;;;3.20;;
22184;SDS011;11258;52.516;13.318;2022-07-23T12:15:47;4.45;;;3.25;;
22184;SDS011;11258;52.516;13.318;2022-07-23T12:18:20;5.97;;;3.78;;
22184;SDS011;11258;52.516;13.318;2022-07-23T12:20:54;4.65;;;3.15;;
22184;SDS011;11258;52.516;13.318;2022-07-23T12:23:24;5.95;;;4.65;;
22184;SDS011;11258;52.516;13.318;2022-07-23T12:25:51;5.28;;;4.00;;
22184;SDS011;11258;52.516;13.318;2022-07-23T12:28:19;6.70;;;3.70;;
22184;SDS011;11258;52.516;13.318;2022-07-23T12:30:50;5.72;;;4.28;;
22184;SDS011;11258;52.516;13.318;2022-07-23T12:33:28;5.65;;;3.67;;
22184;SDS011;11258;52.516;13.318;2022-07-23T12:35:54;5.97;;;3.60;;
22184;SDS011;11258;52.516;13.318;2022-07-23T12:38:22;5.72;;;3.55;;
22184;SDS011;11258;52.516;13.318;2022-07-23T12:40:50;3.72;;;3.13;;
22184;SDS011;11258;52.516;13.318;2022-07-23T12:43:23;7.47;;;3.47;;
22184;SDS011;11258;52.516;13.318;2022-07-23T12:46:02;5.10;;;3.45;;
22184;SDS011;11258;52.516;13.318;2022-07-23T12:48:28;5.60;;;3.20;;
22184;SDS011;11258;52.516;13.318;2022-07-23T12:50:56;6.07;;;2.90;;
22184;SDS011;11258;52.516;13.318;2022-07-23T12:53:43;5.03;;;3.53;;
22184;SDS011;11258;52.516;13.318;2022-07-23T12:56:14;4.80;;;3.63;;
22184;SDS011;11258;52.516;13.318;2022-07-23T13:01:22;5.00;;;3.70;;
22184;SDS011;11258;52.516;13.318;2022-07-23T13:06:36;6.82;;;5.18;;
22184;SDS011;11258;52.516;13.318;2022-07-23T13:09:04;6.22;;;4.38;;
22184;SDS011;11258;52.516;13.318;2022-07-23T13:11:34;6.03;;;4.32;;
22184;SDS011;11258;52.516;13.318;2022-07-23T13:14:00;9.18;;;5.38;;
22184;SDS011;11258;52.516;13.318;2022-07-23T13:16:27;11.65;;;5.85;;
22184;SDS011;11258;52.516;13.318;2022-07-23T13:18:54;9.05;;;5.45;;
22184;SDS011;11258;52.516;13.318;2022-07-23T13:21:21;6.50;;;4.55;;
22184;SDS011;11258;52.516;13.318;2022-07-23T13:23:47;5.72;;;3.92;;
22184;SDS011;11258;52.516;13.318;2022-07-23T13:26:13;4.78;;;3.45;;
22184;SDS011;11258;52.516;13.318;2022-07-23T13:28:39;3.42;;;3.13;;
22184;SDS011;11258;52.516;13.318;2022-07-23T13:31:05;7.13;;;3.55;;
22184;SDS011;11258;52.516;13.318;2022-07-23T13:33:30;10.55;;;3.67;;
22184;SDS011;11258;52.516;13.318;2022-07-23T13:35:56;4.97;;;3.65;;
22184;SDS011;11258;52.516;13.318;2022-07-23T13:38:22;6.97;;;3.95;;
22184;SDS011;11258;52.516;13.318;2022-07-23T13:40:48;4.88;;;3.20;;
22184;SDS011;11258;52.516;13.318;2022-07-23T13:43:16;8.15;;;4.43;;
22184;SDS011;11258;52.516;13.318;2022-07-23T13:45:42;5.28;;;3.42;;
22184;SDS011;11258;52.516;13.318;2022-07-23T13:48:09;5.10;;;3.47;;
22184;SDS011;11258;52.516;13.318;2022-07-23T13:50:36;5.32;;;3.80;;
22184;SDS011;11258;52.516;13.318;2022-07-23T13:53:03;5.60;;;3.70;;
22184;SDS011;11258;52.516;13.318;2022-07-23T13:55:31;6.03;;;3.90;;
22184;SDS011;11258;52.516;13.318;2022-07-23T13:57:57;5.75;;;3.13;;
22184;SDS011;11258;52.516;13.318;2022-07-23T14:00:24;4.57;;;2.90;;
22184;SDS011;11258;52.516;13.318;2022-07-23T14:02:50;6.45;;;2.60;;
22184;SDS011;11258;52.516;13.318;2022-07-23T14:05:16;5.55;;;2.90;;
22184;SDS011;11258;52.516;13.318;2022-07-23T14:07:42;10.93;;;6.00;;
22184;SDS011;11258;52.516;13.318;2022-07-23T14:10:09;3.95;;;2.90;;
22184;SDS011;11258;52.516;13.318;2022-07-23T14:12:36;4.40;;;2.70;;
22184;SDS011;11258;52.516;13.318;2022-07-23T14:15:03;5.03;;;2.58;;
22184;SDS011;11258;52.516;13.318;2022-07-23T14:17:29;3.00;;;2.67;;
22184;SDS011;11258;52.516;13.318;2022-07-23T14:19:56;6.28;;;2.47;;
22184;SDS011;11258;52.516;13.318;2022-07-23T14:22:22;3.42;;;2.65;;
22184;SDS011;11258;52.516;13.318;2022-07-23T14:24:48;4.07;;;2.42;;
22184;SDS011;11258;52.516;13.318;2022-07-23T14:27:14;4.68;;;2.17;;
22184;SDS011;11258;52.516;13.318;2022-07-23T14:29:39;5.47;;;2.92;;
22184;SDS011;11258;52.516;13.318;2022-07-23T14:32:05;5.45;;;2.50;;
22184;SDS011;11258;52.516;13.318;2022-07-23T14:34:31;4.25;;;2.55;;
22184;SDS011;11258;52.516;13.318;2022-07-23T14:36:57;4.88;;;2.80;;
22184;SDS011;11258;52.516;13.318;2022-07-23T14:39:23;5.57;;;2.42;;
22184;SDS011;11258;52.516;13.318;2022-07-23T14:41:48;5.65;;;2.50;;
22184;SDS011;11258;52.516;13.318;2022-07-23T14:44:14;5.15;;;2.50;;
22184;SDS011;11258;52.516;13.318;2022-07-23T14:46:39;4.68;;;2.10;;
22184;SDS011;11258;52.516;13.318;2022-07-23T14:49:05;7.50;;;5.00;;
22184;SDS011;11258;52.516;13.318;2022-07-23T14:51:31;4.05;;;2.85;;
22184;SDS011;11258;52.516;13.318;2022-07-23T14:53:56;8.00;;;4.80;;
22184;SDS011;11258;52.516;13.318;2022-07-23T14:56:22;6.40;;;2.88;;
22184;SDS011;11258;52.516;13.318;2022-07-23T14:58:48;2.63;;;2.08;;
22184;SDS011;11258;52.516;13.318;2022-07-23T15:01:13;2.63;;;2.00;;
22184;SDS011;11258;52.516;13.318;2022-07-23T15:03:39;2.33;;;1.70;;
22184;SDS011;11258;52.516;13.318;2022-07-23T15:06:04;4.55;;;2.05;;
22184;SDS011;11258;52.516;13.318;2022-07-23T15:08:30;2.53;;;2.03;;
22184;SDS011;11258;52.516;13.318;2022-07-23T15:10:56;3.70;;;2.22;;
22184;SDS011;11258;52.516;13.318;2022-07-23T15:13:22;5.72;;;4.05;;
22184;SDS011;11258;52.516;13.318;2022-07-23T15:15:47;4.38;;;2.65;;